sensor_id;sensor_type;location;lat;lon;timestamp;P1;durP1;ratioP1;P2;durP2;ratioP2
44102;SDS011;29769;42.178;24.742;2022-11-27T00:00:19;28.52;;;14.23;;
44102;SDS011;29769;42.178;24.742;2022-11-27T00:03:04;36.72;;;13.05;;
44102;SDS011;29769;42.178;24.742;2022-11-27T00:05:58;26.92;;;13.90;;
44102;SDS011;29769;42.178;24.742;2022-11-27T00:08:43;25.90;;;14.27;;
44102;SDS011;29769;42.178;24.742;2022-11-27T00:11:29;30.73;;;13.70;;
44102;SDS011;29769;42.178;24.742;2022-11-27T00:14:15;26.95;;;14.35;;
44102;SDS011;29769;42.178;24.742;2022-11-27T00:19:45;23.88;;;13.23;;
44102;SDS011;29769;42.178;24.742;2022-11-27T00:22:30;26.75;;;13.50;;
44102;SDS011;29769;42.178;24.742;2022-11-27T00:25:15;24.17;;;13.77;;
44102;SDS011;29769;42.178;24.742;2022-11-27T00:30:45;23.80;;;13.10;;
44102;SDS011;29769;42.178;24.742;2022-11-27T00:36:15;28.67;;;14.52;;
44102;SDS011;29769;42.178;24.742;2022-11-27T00:39:00;29.05;;;14.77;;
44102;SDS011;29769;42.178;24.742;2022-11-27T00:41:45;27.83;;;14.77;;
44102;SDS011;29769;42.178;24.742;2022-11-27T00:44:30;25.52;;;13.18;;
44102;SDS011;29769;42.178;24.742;2022-11-27T00:47:15;34.78;;;14.65;;
44102;SDS011;29769;42.178;24.742;2022-11-27T00:49:59;26.42;;;15.10;;
44102;SDS011;29769;42.178;24.742;2022-11-27T00:52:44;29.75;;;14.57;;
44102;SDS011;29769;42.178;24.742;2022-11-27T00:55:29;28.90;;;16.27;;
44102;SDS011;29769;42.178;24.742;2022-11-27T00:58:14;32.80;;;15.50;;
44102;SDS011;29769;42.178;24.742;2022-11-27T01:01:00;23.67;;;13.68;;
44102;SDS011;29769;42.178;24.742;2022-11-27T01:03:47;28.02;;;14.60;;
44102;SDS011;29769;42.178;24.742;2022-11-27T01:06:33;27.70;;;15.38;;
44102;SDS011;29769;42.178;24.742;2022-11-27T01:12:02;33.60;;;17.58;;
44102;SDS011;29769;42.178;24.742;2022-11-27T01:14:48;30.20;;;16.60;;
44102;SDS011;29769;42.178;24.742;2022-11-27T01:17:33;39.92;;;19.10;;
44102;SDS011;29769;42.178;24.742;2022-11-27T01:20:18;36.38;;;17.85;;
44102;SDS011;29769;42.178;24.742;2022-11-27T01:23:03;40.53;;;19.00;;
44102;SDS011;29769;42.178;24.742;2022-11-27T01:25:48;35.67;;;17.40;;
44102;SDS011;29769;42.178;24.742;2022-11-27T01:28:33;36.55;;;17.08;;
44102;SDS011;29769;42.178;24.742;2022-11-27T01:31:20;35.10;;;17.88;;
44102;SDS011;29769;42.178;24.742;2022-11-27T01:34:07;35.25;;;18.02;;
44102;SDS011;29769;42.178;24.742;2022-11-27T01:36:56;34.67;;;17.08;;
44102;SDS011;29769;42.178;24.742;2022-11-27T01:39:41;35.80;;;17.08;;
44102;SDS011;29769;42.178;24.742;2022-11-27T01:42:26;33.72;;;16.45;;
44102;SDS011;29769;42.178;24.742;2022-11-27T01:45:10;36.20;;;17.55;;
44102;SDS011;29769;42.178;24.742;2022-11-27T01:48:00;33.72;;;18.25;;
44102;SDS011;29769;42.178;24.742;2022-11-27T01:50:46;32.70;;;18.30;;
44102;SDS011;29769;42.178;24.742;2022-11-27T01:53:31;35.95;;;18.02;;
44102;SDS011;29769;42.178;24.742;2022-11-27T01:56:18;36.67;;;18.23;;
44102;SDS011;29769;42.178;24.742;2022-11-27T01:59:04;36.00;;;18.30;;
44102;SDS011;29769;42.178;24.742;2022-11-27T02:01:49;35.72;;;19.17;;
44102;SDS011;29769;42.178;24.742;2022-11-27T02:04:34;34.65;;;19.67;;
44102;SDS011;29769;42.178;24.742;2022-11-27T02:07:19;39.15;;;19.52;;
44102;SDS011;29769;42.178;24.742;2022-11-27T02:10:04;38.50;;;20.92;;
44102;SDS011;29769;42.178;24.742;2022-11-27T02:13:10;37.05;;;20.20;;
44102;SDS011;29769;42.178;24.742;2022-11-27T02:25:30;33.40;;;19.60;;
44102;SDS011;29769;42.178;24.742;2022-11-27T02:31:56;42.85;;;21.40;;
44102;SDS011;29769;42.178;24.742;2022-11-27T02:34:50;42.65;;;20.13;;
44102;SDS011;29769;42.178;24.742;2022-11-27T02:37:46;38.55;;;21.02;;
44102;SDS011;29769;42.178;24.742;2022-11-27T02:40:36;37.35;;;20.05;;
44102;SDS011;29769;42.178;24.742;2022-11-27T02:43:28;38.85;;;19.40;;
44102;SDS011;29769;42.178;24.742;2022-11-27T02:46:17;36.25;;;19.77;;
44102;SDS011;29769;42.178;24.742;2022-11-27T02:49:07;37.88;;;19.42;;
44102;SDS011;29769;42.178;24.742;2022-11-27T02:51:56;36.45;;;19.98;;
44102;SDS011;29769;42.178;24.742;2022-11-27T02:54:42;36.60;;;20.23;;
44102;SDS011;29769;42.178;24.742;2022-11-27T02:57:31;33.78;;;18.52;;
44102;SDS011;29769;42.178;24.742;2022-11-27T03:00:17;35.30;;;18.77;;
44102;SDS011;29769;42.178;24.742;2022-11-27T03:05:51;35.08;;;18.70;;
44102;SDS011;29769;42.178;24.742;2022-11-27T03:08:49;36.38;;;20.17;;
44102;SDS011;29769;42.178;24.742;2022-11-27T03:11:39;40.42;;;20.83;;
44102;SDS011;29769;42.178;24.742;2022-11-27T03:19:55;37.50;;;20.67;;
44102;SDS011;29769;42.178;24.742;2022-11-27T03:22:45;34.75;;;18.90;;
44102;SDS011;29769;42.178;24.742;2022-11-27T03:25:30;41.70;;;20.42;;
44102;SDS011;29769;42.178;24.742;2022-11-27T03:28:15;40.72;;;21.55;;
44102;SDS011;29769;42.178;24.742;2022-11-27T03:31:00;37.45;;;20.20;;
44102;SDS011;29769;42.178;24.742;2022-11-27T03:33:45;37.40;;;20.73;;
44102;SDS011;29769;42.178;24.742;2022-11-27T03:36:30;37.30;;;19.13;;
44102;SDS011;29769;42.178;24.742;2022-11-27T03:39:15;38.03;;;19.05;;
44102;SDS011;29769;42.178;24.742;2022-11-27T03:45:06;35.90;;;19.00;;
44102;SDS011;29769;42.178;24.742;2022-11-27T03:54:43;28.17;;;16.05;;
44102;SDS011;29769;42.178;24.742;2022-11-27T03:57:59;26.52;;;14.95;;
44102;SDS011;29769;42.178;24.742;2022-11-27T04:00:47;29.83;;;15.40;;
44102;SDS011;29769;42.178;24.742;2022-11-27T04:03:34;28.90;;;15.18;;
44102;SDS011;29769;42.178;24.742;2022-11-27T04:06:19;28.75;;;15.23;;
44102;SDS011;29769;42.178;24.742;2022-11-27T04:09:04;30.05;;;15.32;;
44102;SDS011;29769;42.178;24.742;2022-11-27T04:11:49;27.77;;;14.93;;
44102;SDS011;29769;42.178;24.742;2022-11-27T04:14:34;35.67;;;16.33;;
44102;SDS011;29769;42.178;24.742;2022-11-27T04:17:19;29.60;;;15.98;;
44102;SDS011;29769;42.178;24.742;2022-11-27T04:20:04;32.40;;;16.42;;
44102;SDS011;29769;42.178;24.742;2022-11-27T04:22:49;30.63;;;16.13;;
44102;SDS011;29769;42.178;24.742;2022-11-27T04:25:34;30.30;;;15.90;;
44102;SDS011;29769;42.178;24.742;2022-11-27T04:28:19;36.15;;;16.23;;
44102;SDS011;29769;42.178;24.742;2022-11-27T04:31:04;30.95;;;15.80;;
44102;SDS011;29769;42.178;24.742;2022-11-27T04:33:49;33.05;;;14.75;;
44102;SDS011;29769;42.178;24.742;2022-11-27T04:36:34;26.30;;;15.05;;
44102;SDS011;29769;42.178;24.742;2022-11-27T04:39:19;28.08;;;14.65;;
44102;SDS011;29769;42.178;24.742;2022-11-27T04:42:03;26.23;;;15.00;;
44102;SDS011;29769;42.178;24.742;2022-11-27T04:44:48;27.75;;;14.88;;
44102;SDS011;29769;42.178;24.742;2022-11-27T04:47:33;25.88;;;15.23;;
44102;SDS011;29769;42.178;24.742;2022-11-27T04:50:18;33.45;;;17.23;;
44102;SDS011;29769;42.178;24.742;2022-11-27T04:53:03;41.47;;;21.02;;
44102;SDS011;29769;42.178;24.742;2022-11-27T04:55:49;50.65;;;23.38;;
44102;SDS011;29769;42.178;24.742;2022-11-27T04:58:35;36.58;;;18.00;;
44102;SDS011;29769;42.178;24.742;2022-11-27T05:01:20;29.00;;;16.83;;
44102;SDS011;29769;42.178;24.742;2022-11-27T05:04:05;31.27;;;17.35;;
44102;SDS011;29769;42.178;24.742;2022-11-27T05:06:50;32.97;;;16.75;;
44102;SDS011;29769;42.178;24.742;2022-11-27T05:09:34;38.72;;;20.33;;
44102;SDS011;29769;42.178;24.742;2022-11-27T05:12:19;36.05;;;19.00;;
44102;SDS011;29769;42.178;24.742;2022-11-27T05:15:04;27.83;;;15.68;;
44102;SDS011;29769;42.178;24.742;2022-11-27T05:17:50;31.67;;;14.73;;
44102;SDS011;29769;42.178;24.742;2022-11-27T05:20:35;38.20;;;18.02;;
44102;SDS011;29769;42.178;24.742;2022-11-27T05:23:20;30.48;;;17.45;;
44102;SDS011;29769;42.178;24.742;2022-11-27T05:26:05;35.20;;;16.02;;
44102;SDS011;29769;42.178;24.742;2022-11-27T05:28:49;26.05;;;14.68;;
44102;SDS011;29769;42.178;24.742;2022-11-27T05:31:35;29.60;;;14.77;;
44102;SDS011;29769;42.178;24.742;2022-11-27T05:37:04;26.45;;;15.07;;
44102;SDS011;29769;42.178;24.742;2022-11-27T05:39:49;26.48;;;14.68;;
44102;SDS011;29769;42.178;24.742;2022-11-27T05:42:34;28.10;;;14.73;;
44102;SDS011;29769;42.178;24.742;2022-11-27T05:45:19;30.90;;;15.98;;
44102;SDS011;29769;42.178;24.742;2022-11-27T05:48:04;27.20;;;15.63;;
44102;SDS011;29769;42.178;24.742;2022-11-27T05:50:48;25.42;;;14.90;;
44102;SDS011;29769;42.178;24.742;2022-11-27T05:53:33;26.27;;;16.20;;
44102;SDS011;29769;42.178;24.742;2022-11-27T05:56:18;29.90;;;16.73;;
44102;SDS011;29769;42.178;24.742;2022-11-27T05:59:03;28.33;;;15.40;;
44102;SDS011;29769;42.178;24.742;2022-11-27T06:01:48;31.27;;;14.77;;
44102;SDS011;29769;42.178;24.742;2022-11-27T06:04:33;31.30;;;16.42;;
44102;SDS011;29769;42.178;24.742;2022-11-27T06:07:18;30.48;;;15.52;;
44102;SDS011;29769;42.178;24.742;2022-11-27T06:10:03;25.70;;;14.90;;
44102;SDS011;29769;42.178;24.742;2022-11-27T06:12:48;25.38;;;15.13;;
44102;SDS011;29769;42.178;24.742;2022-11-27T06:15:34;25.48;;;15.15;;
44102;SDS011;29769;42.178;24.742;2022-11-27T06:18:20;28.10;;;15.95;;
44102;SDS011;29769;42.178;24.742;2022-11-27T06:21:06;24.75;;;14.93;;
44102;SDS011;29769;42.178;24.742;2022-11-27T06:23:58;24.27;;;14.68;;
44102;SDS011;29769;42.178;24.742;2022-11-27T06:26:43;26.75;;;14.05;;
44102;SDS011;29769;42.178;24.742;2022-11-27T06:29:27;30.88;;;14.13;;
44102;SDS011;29769;42.178;24.742;2022-11-27T06:32:12;31.13;;;16.48;;
44102;SDS011;29769;42.178;24.742;2022-11-27T06:34:57;28.17;;;16.27;;
44102;SDS011;29769;42.178;24.742;2022-11-27T06:37:42;28.98;;;15.57;;
44102;SDS011;29769;42.178;24.742;2022-11-27T06:40:27;25.83;;;14.93;;
44102;SDS011;29769;42.178;24.742;2022-11-27T06:43:11;26.17;;;13.98;;
44102;SDS011;29769;42.178;24.742;2022-11-27T06:45:57;26.98;;;14.60;;
44102;SDS011;29769;42.178;24.742;2022-11-27T06:48:43;23.77;;;14.30;;
44102;SDS011;29769;42.178;24.742;2022-11-27T06:51:30;26.90;;;14.30;;
44102;SDS011;29769;42.178;24.742;2022-11-27T06:54:15;24.92;;;14.30;;
44102;SDS011;29769;42.178;24.742;2022-11-27T06:57:00;27.88;;;15.40;;
44102;SDS011;29769;42.178;24.742;2022-11-27T06:59:45;28.90;;;14.32;;
44102;SDS011;29769;42.178;24.742;2022-11-27T07:02:30;24.15;;;13.55;;
44102;SDS011;29769;42.178;24.742;2022-11-27T07:05:15;24.50;;;14.52;;
44102;SDS011;29769;42.178;24.742;2022-11-27T07:08:00;29.88;;;14.75;;
44102;SDS011;29769;42.178;24.742;2022-11-27T07:10:45;26.02;;;14.32;;
44102;SDS011;29769;42.178;24.742;2022-11-27T07:13:30;24.92;;;14.45;;
44102;SDS011;29769;42.178;24.742;2022-11-27T07:16:15;38.75;;;15.65;;
44102;SDS011;29769;42.178;24.742;2022-11-27T07:19:01;24.95;;;15.63;;
44102;SDS011;29769;42.178;24.742;2022-11-27T07:21:48;25.95;;;14.27;;
44102;SDS011;29769;42.178;24.742;2022-11-27T07:24:33;31.30;;;15.02;;
44102;SDS011;29769;42.178;24.742;2022-11-27T07:27:19;29.50;;;16.15;;
44102;SDS011;29769;42.178;24.742;2022-11-27T07:30:04;26.45;;;14.60;;
44102;SDS011;29769;42.178;24.742;2022-11-27T07:35:33;41.47;;;16.33;;
44102;SDS011;29769;42.178;24.742;2022-11-27T07:38:18;37.22;;;16.33;;
44102;SDS011;29769;42.178;24.742;2022-11-27T07:41:03;33.55;;;16.13;;
44102;SDS011;29769;42.178;24.742;2022-11-27T07:43:49;29.48;;;15.57;;
44102;SDS011;29769;42.178;24.742;2022-11-27T07:46:34;29.27;;;16.25;;
44102;SDS011;29769;42.178;24.742;2022-11-27T07:49:19;33.70;;;16.00;;
44102;SDS011;29769;42.178;24.742;2022-11-27T07:52:04;28.73;;;15.30;;
44102;SDS011;29769;42.178;24.742;2022-11-27T07:54:48;23.35;;;14.68;;
44102;SDS011;29769;42.178;24.742;2022-11-27T07:57:34;27.38;;;14.55;;
44102;SDS011;29769;42.178;24.742;2022-11-27T08:00:19;39.17;;;16.08;;
44102;SDS011;29769;42.178;24.742;2022-11-27T08:05:48;37.45;;;16.30;;
44102;SDS011;29769;42.178;24.742;2022-11-27T08:08:33;39.45;;;16.85;;
44102;SDS011;29769;42.178;24.742;2022-11-27T08:11:20;30.55;;;14.75;;
44102;SDS011;29769;42.178;24.742;2022-11-27T08:14:06;28.75;;;15.55;;
44102;SDS011;29769;42.178;24.742;2022-11-27T08:16:51;25.50;;;15.13;;
44102;SDS011;29769;42.178;24.742;2022-11-27T08:19:36;26.23;;;15.65;;
44102;SDS011;29769;42.178;24.742;2022-11-27T08:22:21;23.35;;;15.48;;
44102;SDS011;29769;42.178;24.742;2022-11-27T08:25:06;27.38;;;14.90;;
44102;SDS011;29769;42.178;24.742;2022-11-27T08:27:51;23.65;;;15.30;;
44102;SDS011;29769;42.178;24.742;2022-11-27T08:30:36;28.60;;;14.15;;
44102;SDS011;29769;42.178;24.742;2022-11-27T08:33:21;22.65;;;14.15;;
44102;SDS011;29769;42.178;24.742;2022-11-27T08:36:06;41.13;;;15.80;;
44102;SDS011;29769;42.178;24.742;2022-11-27T08:38:52;29.77;;;14.95;;
44102;SDS011;29769;42.178;24.742;2022-11-27T08:41:37;27.67;;;15.45;;
44102;SDS011;29769;42.178;24.742;2022-11-27T08:44:22;24.67;;;14.43;;
44102;SDS011;29769;42.178;24.742;2022-11-27T08:47:06;28.75;;;14.77;;
44102;SDS011;29769;42.178;24.742;2022-11-27T08:49:51;23.90;;;14.20;;
44102;SDS011;29769;42.178;24.742;2022-11-27T08:52:36;19.40;;;12.77;;
44102;SDS011;29769;42.178;24.742;2022-11-27T08:55:21;22.58;;;13.30;;
44102;SDS011;29769;42.178;24.742;2022-11-27T08:58:06;20.08;;;13.15;;
44102;SDS011;29769;42.178;24.742;2022-11-27T09:00:51;21.75;;;13.48;;
44102;SDS011;29769;42.178;24.742;2022-11-27T09:03:39;22.50;;;13.27;;
44102;SDS011;29769;42.178;24.742;2022-11-27T09:06:25;23.77;;;14.02;;
44102;SDS011;29769;42.178;24.742;2022-11-27T09:09:14;28.85;;;14.13;;
44102;SDS011;29769;42.178;24.742;2022-11-27T09:11:59;19.15;;;13.35;;
44102;SDS011;29769;42.178;24.742;2022-11-27T09:17:29;19.48;;;12.68;;
44102;SDS011;29769;42.178;24.742;2022-11-27T09:20:13;23.20;;;14.27;;
44102;SDS011;29769;42.178;24.742;2022-11-27T09:22:59;28.85;;;14.90;;
44102;SDS011;29769;42.178;24.742;2022-11-27T09:25:45;26.50;;;14.25;;
44102;SDS011;29769;42.178;24.742;2022-11-27T09:28:33;34.58;;;16.67;;
44102;SDS011;29769;42.178;24.742;2022-11-27T09:31:19;23.58;;;15.20;;
44102;SDS011;29769;42.178;24.742;2022-11-27T09:34:06;23.05;;;14.15;;
44102;SDS011;29769;42.178;24.742;2022-11-27T09:36:51;19.48;;;12.40;;
44102;SDS011;29769;42.178;24.742;2022-11-27T09:39:36;24.38;;;13.25;;
44102;SDS011;29769;42.178;24.742;2022-11-27T09:45:21;43.72;;;14.77;;
44102;SDS011;29769;42.178;24.742;2022-11-27T09:48:11;21.95;;;12.90;;
44102;SDS011;29769;42.178;24.742;2022-11-27T09:51:07;21.90;;;13.50;;
44102;SDS011;29769;42.178;24.742;2022-11-27T09:54:42;24.10;;;13.40;;
44102;SDS011;29769;42.178;24.742;2022-11-27T09:57:13;29.15;;;14.27;;
44102;SDS011;29769;42.178;24.742;2022-11-27T10:00:01;23.80;;;13.50;;
44102;SDS011;29769;42.178;24.742;2022-11-27T10:02:58;24.23;;;13.50;;
44102;SDS011;29769;42.178;24.742;2022-11-27T10:18:12;16.42;;;11.43;;
44102;SDS011;29769;42.178;24.742;2022-11-27T10:21:02;18.80;;;10.77;;
44102;SDS011;29769;42.178;24.742;2022-11-27T10:27:12;21.65;;;12.35;;
44102;SDS011;29769;42.178;24.742;2022-11-27T10:30:12;18.05;;;11.75;;
44102;SDS011;29769;42.178;24.742;2022-11-27T10:33:00;20.35;;;12.20;;
44102;SDS011;29769;42.178;24.742;2022-11-27T10:35:47;16.58;;;12.25;;
44102;SDS011;29769;42.178;24.742;2022-11-27T10:38:33;14.32;;;10.75;;
44102;SDS011;29769;42.178;24.742;2022-11-27T10:41:27;16.65;;;11.32;;
44102;SDS011;29769;42.178;24.742;2022-11-27T10:47:45;19.38;;;12.63;;
44102;SDS011;29769;42.178;24.742;2022-11-27T10:50:31;17.67;;;12.13;;
44102;SDS011;29769;42.178;24.742;2022-11-27T10:59:34;22.85;;;12.68;;
44102;SDS011;29769;42.178;24.742;2022-11-27T11:02:30;15.90;;;10.85;;
44102;SDS011;29769;42.178;24.742;2022-11-27T11:08:13;22.98;;;11.73;;
44102;SDS011;29769;42.178;24.742;2022-11-27T11:11:03;21.92;;;11.38;;
44102;SDS011;29769;42.178;24.742;2022-11-27T11:13:49;15.50;;;11.27;;
44102;SDS011;29769;42.178;24.742;2022-11-27T11:16:40;15.98;;;10.25;;
44102;SDS011;29769;42.178;24.742;2022-11-27T11:19:30;15.35;;;10.68;;
44102;SDS011;29769;42.178;24.742;2022-11-27T11:22:17;19.42;;;11.27;;
44102;SDS011;29769;42.178;24.742;2022-11-27T11:25:03;14.07;;;9.32;;
44102;SDS011;29769;42.178;24.742;2022-11-27T11:27:49;17.35;;;10.75;;
44102;SDS011;29769;42.178;24.742;2022-11-27T11:30:35;10.77;;;6.88;;
44102;SDS011;29769;42.178;24.742;2022-11-27T11:33:22;10.77;;;6.70;;
44102;SDS011;29769;42.178;24.742;2022-11-27T11:36:09;9.52;;;7.00;;
44102;SDS011;29769;42.178;24.742;2022-11-27T11:38:54;10.63;;;6.95;;
44102;SDS011;29769;42.178;24.742;2022-11-27T11:41:39;7.75;;;5.72;;
44102;SDS011;29769;42.178;24.742;2022-11-27T11:44:34;8.55;;;6.53;;
44102;SDS011;29769;42.178;24.742;2022-11-27T11:47:22;11.23;;;7.10;;
44102;SDS011;29769;42.178;24.742;2022-11-27T11:50:10;9.60;;;5.80;;
44102;SDS011;29769;42.178;24.742;2022-11-27T11:53:40;8.75;;;6.13;;
44102;SDS011;29769;42.178;24.742;2022-11-27T11:56:37;12.23;;;8.32;;
44102;SDS011;29769;42.178;24.742;2022-11-27T12:05:40;10.80;;;7.15;;
44102;SDS011;29769;42.178;24.742;2022-11-27T12:11:47;13.85;;;7.10;;
44102;SDS011;29769;42.178;24.742;2022-11-27T12:18:36;13.10;;;6.88;;
44102;SDS011;29769;42.178;24.742;2022-11-27T12:21:12;14.52;;;6.90;;
44102;SDS011;29769;42.178;24.742;2022-11-27T12:24:01;8.88;;;6.18;;
44102;SDS011;29769;42.178;24.742;2022-11-27T12:27:03;11.90;;;6.97;;
44102;SDS011;29769;42.178;24.742;2022-11-27T12:30:09;8.48;;;6.00;;
44102;SDS011;29769;42.178;24.742;2022-11-27T12:33:01;7.50;;;5.50;;
44102;SDS011;29769;42.178;24.742;2022-11-27T12:39:23;17.42;;;7.20;;
44102;SDS011;29769;42.178;24.742;2022-11-27T12:45:22;15.70;;;7.57;;
44102;SDS011;29769;42.178;24.742;2022-11-27T12:54:12;10.18;;;7.25;;
44102;SDS011;29769;42.178;24.742;2022-11-27T12:57:04;18.00;;;7.68;;
44102;SDS011;29769;42.178;24.742;2022-11-27T12:59:56;9.15;;;6.05;;
44102;SDS011;29769;42.178;24.742;2022-11-27T13:05:52;15.43;;;6.88;;
44102;SDS011;29769;42.178;24.742;2022-11-27T13:11:38;8.43;;;5.47;;
44102;SDS011;29769;42.178;24.742;2022-11-27T13:14:25;7.32;;;5.40;;
44102;SDS011;29769;42.178;24.742;2022-11-27T13:17:11;11.38;;;5.95;;
44102;SDS011;29769;42.178;24.742;2022-11-27T13:19:59;12.80;;;5.80;;
44102;SDS011;29769;42.178;24.742;2022-11-27T13:22:46;8.45;;;5.60;;
44102;SDS011;29769;42.178;24.742;2022-11-27T13:25:33;7.05;;;5.40;;
44102;SDS011;29769;42.178;24.742;2022-11-27T13:28:25;11.07;;;5.70;;
44102;SDS011;29769;42.178;24.742;2022-11-27T13:31:21;7.63;;;5.13;;
44102;SDS011;29769;42.178;24.742;2022-11-27T13:34:15;7.88;;;5.20;;
44102;SDS011;29769;42.178;24.742;2022-11-27T13:37:04;7.88;;;5.30;;
44102;SDS011;29769;42.178;24.742;2022-11-27T13:39:57;7.88;;;4.90;;
44102;SDS011;29769;42.178;24.742;2022-11-27T13:43:04;8.77;;;5.20;;
44102;SDS011;29769;42.178;24.742;2022-11-27T13:46:02;7.13;;;5.28;;
44102;SDS011;29769;42.178;24.742;2022-11-27T13:48:51;14.63;;;5.50;;
44102;SDS011;29769;42.178;24.742;2022-11-27T13:51:37;8.23;;;5.55;;
44102;SDS011;29769;42.178;24.742;2022-11-27T13:54:23;8.07;;;4.80;;
44102;SDS011;29769;42.178;24.742;2022-11-27T14:02:59;10.05;;;5.00;;
44102;SDS011;29769;42.178;24.742;2022-11-27T14:08:29;13.45;;;5.72;;
44102;SDS011;29769;42.178;24.742;2022-11-27T14:11:26;16.20;;;5.32;;
44102;SDS011;29769;42.178;24.742;2022-11-27T14:14:17;9.57;;;5.50;;
44102;SDS011;29769;42.178;24.742;2022-11-27T14:17:04;12.52;;;6.00;;
44102;SDS011;29769;42.178;24.742;2022-11-27T14:20:05;9.23;;;6.20;;
44102;SDS011;29769;42.178;24.742;2022-11-27T14:23:04;9.35;;;5.55;;
44102;SDS011;29769;42.178;24.742;2022-11-27T14:25:49;11.57;;;6.65;;
44102;SDS011;29769;42.178;24.742;2022-11-27T14:28:55;16.27;;;6.10;;
44102;SDS011;29769;42.178;24.742;2022-11-27T14:31:42;9.80;;;5.82;;
44102;SDS011;29769;42.178;24.742;2022-11-27T14:34:31;8.48;;;6.00;;
44102;SDS011;29769;42.178;24.742;2022-11-27T14:40:27;9.18;;;5.97;;
44102;SDS011;29769;42.178;24.742;2022-11-27T14:43:16;13.32;;;5.53;;
44102;SDS011;29769;42.178;24.742;2022-11-27T14:46:02;12.07;;;5.80;;
44102;SDS011;29769;42.178;24.742;2022-11-27T14:48:50;11.85;;;5.65;;
44102;SDS011;29769;42.178;24.742;2022-11-27T14:51:42;9.05;;;5.28;;
44102;SDS011;29769;42.178;24.742;2022-11-27T14:57:24;9.40;;;6.07;;
44102;SDS011;29769;42.178;24.742;2022-11-27T15:00:13;9.60;;;5.55;;
44102;SDS011;29769;42.178;24.742;2022-11-27T15:03:06;9.23;;;5.07;;
44102;SDS011;29769;42.178;24.742;2022-11-27T15:08:44;8.48;;;6.15;;
44102;SDS011;29769;42.178;24.742;2022-11-27T15:11:30;9.60;;;6.05;;
44102;SDS011;29769;42.178;24.742;2022-11-27T15:14:16;13.85;;;6.70;;
44102;SDS011;29769;42.178;24.742;2022-11-27T15:17:01;12.05;;;6.13;;
44102;SDS011;29769;42.178;24.742;2022-11-27T15:19:46;14.43;;;5.47;;
44102;SDS011;29769;42.178;24.742;2022-11-27T15:22:31;11.50;;;6.03;;
44102;SDS011;29769;42.178;24.742;2022-11-27T15:31:36;10.82;;;5.70;;
44102;SDS011;29769;42.178;24.742;2022-11-27T15:34:22;8.95;;;6.20;;
44102;SDS011;29769;42.178;24.742;2022-11-27T15:37:23;11.02;;;6.13;;
44102;SDS011;29769;42.178;24.742;2022-11-27T15:40:21;10.30;;;5.70;;
44102;SDS011;29769;42.178;24.742;2022-11-27T15:43:10;12.48;;;5.05;;
44102;SDS011;29769;42.178;24.742;2022-11-27T15:46:02;8.90;;;5.20;;
44102;SDS011;29769;42.178;24.742;2022-11-27T15:48:48;8.20;;;4.82;;
44102;SDS011;29769;42.178;24.742;2022-11-27T15:51:33;8.95;;;5.25;;
44102;SDS011;29769;42.178;24.742;2022-11-27T15:54:18;12.73;;;6.22;;
44102;SDS011;29769;42.178;24.742;2022-11-27T15:57:03;7.57;;;4.95;;
44102;SDS011;29769;42.178;24.742;2022-11-27T15:59:48;6.63;;;4.63;;
44102;SDS011;29769;42.178;24.742;2022-11-27T16:02:33;6.68;;;4.63;;
44102;SDS011;29769;42.178;24.742;2022-11-27T16:05:18;12.32;;;4.68;;
44102;SDS011;29769;42.178;24.742;2022-11-27T16:08:04;10.98;;;4.70;;
44102;SDS011;29769;42.178;24.742;2022-11-27T16:10:49;9.15;;;4.68;;
44102;SDS011;29769;42.178;24.742;2022-11-27T16:13:34;8.80;;;4.60;;
44102;SDS011;29769;42.178;24.742;2022-11-27T16:16:19;10.10;;;4.75;;
44102;SDS011;29769;42.178;24.742;2022-11-27T16:19:04;13.82;;;5.28;;
44102;SDS011;29769;42.178;24.742;2022-11-27T16:21:50;15.23;;;7.60;;
44102;SDS011;29769;42.178;24.742;2022-11-27T16:24:34;15.65;;;9.48;;
44102;SDS011;29769;42.178;24.742;2022-11-27T16:30:04;18.48;;;10.57;;
44102;SDS011;29769;42.178;24.742;2022-11-27T16:32:50;20.20;;;12.30;;
44102;SDS011;29769;42.178;24.742;2022-11-27T16:35:35;18.75;;;12.15;;
44102;SDS011;29769;42.178;24.742;2022-11-27T16:38:20;16.15;;;10.77;;
44102;SDS011;29769;42.178;24.742;2022-11-27T16:41:07;13.15;;;9.52;;
44102;SDS011;29769;42.178;24.742;2022-11-27T16:43:55;13.85;;;8.88;;
44102;SDS011;29769;42.178;24.742;2022-11-27T16:46:41;11.45;;;7.85;;
44102;SDS011;29769;42.178;24.742;2022-11-27T16:49:28;13.82;;;8.18;;
44102;SDS011;29769;42.178;24.742;2022-11-27T16:54:58;12.55;;;7.53;;
44102;SDS011;29769;42.178;24.742;2022-11-27T16:57:43;14.63;;;8.00;;
44102;SDS011;29769;42.178;24.742;2022-11-27T17:00:28;15.20;;;8.25;;
44102;SDS011;29769;42.178;24.742;2022-11-27T17:03:13;13.57;;;8.02;;
44102;SDS011;29769;42.178;24.742;2022-11-27T17:05:58;18.63;;;9.02;;
44102;SDS011;29769;42.178;24.742;2022-11-27T17:08:43;13.13;;;7.88;;
44102;SDS011;29769;42.178;24.742;2022-11-27T17:11:29;19.23;;;10.00;;
44102;SDS011;29769;42.178;24.742;2022-11-27T17:14:19;18.38;;;7.65;;
44102;SDS011;29769;42.178;24.742;2022-11-27T17:17:04;17.27;;;8.63;;
44102;SDS011;29769;42.178;24.742;2022-11-27T17:19:49;17.23;;;9.68;;
44102;SDS011;29769;42.178;24.742;2022-11-27T17:22:39;21.88;;;10.75;;
44102;SDS011;29769;42.178;24.742;2022-11-27T17:25:24;17.10;;;10.32;;
44102;SDS011;29769;42.178;24.742;2022-11-27T17:28:10;14.15;;;9.23;;
44102;SDS011;29769;42.178;24.742;2022-11-27T17:30:55;15.65;;;8.52;;
44102;SDS011;29769;42.178;24.742;2022-11-27T17:33:40;18.38;;;9.63;;
44102;SDS011;29769;42.178;24.742;2022-11-27T17:36:25;18.35;;;10.68;;
44102;SDS011;29769;42.178;24.742;2022-11-27T17:39:12;18.00;;;11.23;;
44102;SDS011;29769;42.178;24.742;2022-11-27T17:41:58;20.00;;;11.07;;
44102;SDS011;29769;42.178;24.742;2022-11-27T17:44:43;20.98;;;11.23;;
44102;SDS011;29769;42.178;24.742;2022-11-27T17:47:27;19.27;;;10.95;;
44102;SDS011;29769;42.178;24.742;2022-11-27T17:50:13;30.30;;;12.32;;
44102;SDS011;29769;42.178;24.742;2022-11-27T17:52:57;30.13;;;12.90;;
44102;SDS011;29769;42.178;24.742;2022-11-27T17:55:42;31.02;;;14.02;;
44102;SDS011;29769;42.178;24.742;2022-11-27T18:01:16;29.45;;;13.27;;
44102;SDS011;29769;42.178;24.742;2022-11-27T18:04:03;28.23;;;12.93;;
44102;SDS011;29769;42.178;24.742;2022-11-27T18:06:49;28.88;;;14.95;;
44102;SDS011;29769;42.178;24.742;2022-11-27T18:09:34;41.58;;;20.92;;
44102;SDS011;29769;42.178;24.742;2022-11-27T18:12:19;41.13;;;15.98;;
44102;SDS011;29769;42.178;24.742;2022-11-27T18:15:04;38.60;;;16.17;;
44102;SDS011;29769;42.178;24.742;2022-11-27T18:17:50;40.50;;;19.50;;
44102;SDS011;29769;42.178;24.742;2022-11-27T18:20:35;37.28;;;18.50;;
44102;SDS011;29769;42.178;24.742;2022-11-27T18:23:19;39.55;;;18.95;;
44102;SDS011;29769;42.178;24.742;2022-11-27T18:26:05;47.03;;;22.02;;
44102;SDS011;29769;42.178;24.742;2022-11-27T18:28:55;33.88;;;17.33;;
44102;SDS011;29769;42.178;24.742;2022-11-27T18:31:41;38.83;;;19.25;;
44102;SDS011;29769;42.178;24.742;2022-11-27T18:37:11;46.08;;;22.52;;
44102;SDS011;29769;42.178;24.742;2022-11-27T18:42:40;62.60;;;24.75;;